createdAt,value
2018-12-11T00:06:18.255Z,4.81
2018-12-11T00:10:23.035Z,4.80
2018-12-11T00:14:27.848Z,4.82
2018-12-11T00:18:32.689Z,4.83
2018-12-11T00:22:37.468Z,4.77
2018-12-11T00:26:42.327Z,4.76
2018-12-11T00:30:47.170Z,4.75
2018-12-11T00:34:52.006Z,4.77
2018-12-11T00:38:56.816Z,4.76
2018-12-11T00:43:01.661Z,4.77
2018-12-11T00:47:06.475Z,4.77
2018-12-11T00:51:11.321Z,4.73
2018-12-11T00:55:16.187Z,4.71
2018-12-11T00:59:21.050Z,4.73
2018-12-11T01:03:25.873Z,4.70
2018-12-11T01:07:30.758Z,4.72
2018-12-11T01:11:35.605Z,4.71
2018-12-11T01:15:40.428Z,4.73
2018-12-11T01:19:45.342Z,4.73
2018-12-11T01:23:50.226Z,4.74
2018-12-11T01:27:55.035Z,4.77
2018-12-11T01:31:59.876Z,4.76
2018-12-11T01:36:04.680Z,4.73
2018-12-11T01:40:09.541Z,4.73
2018-12-11T01:44:14.397Z,4.68
2018-12-11T01:48:19.213Z,4.66
2018-12-11T01:52:24.062Z,4.62
2018-12-11T01:56:28.883Z,4.58
2018-12-11T02:00:33.720Z,4.56
2018-12-11T02:04:39.281Z,4.53
2018-12-11T02:08:44.119Z,4.53
2018-12-11T02:12:49.030Z,4.54
2018-12-11T02:16:53.856Z,4.52
2018-12-11T02:20:58.698Z,4.54
2018-12-11T02:25:03.561Z,4.53
2018-12-11T02:29:08.426Z,4.52
2018-12-11T02:33:13.428Z,4.53
2018-12-11T02:37:18.913Z,4.52
2018-12-11T02:41:23.932Z,4.50
2018-12-11T02:45:28.929Z,4.52
2018-12-11T02:49:33.943Z,4.51
2018-12-11T02:53:38.939Z,4.56
2018-12-11T02:57:43.927Z,4.57
2018-12-11T03:01:48.952Z,4.55
2018-12-11T03:05:54.023Z,4.56
2018-12-11T03:09:59.104Z,4.57
2018-12-11T03:14:04.233Z,4.59
2018-12-11T03:18:09.345Z,4.62
2018-12-11T03:22:14.323Z,4.62
2018-12-11T03:26:19.288Z,4.61
2018-12-11T03:30:24.262Z,4.61
2018-12-11T03:34:29.358Z,4.57
2018-12-11T03:38:34.336Z,4.61
2018-12-11T03:42:39.379Z,4.61
2018-12-11T03:46:44.355Z,4.60
2018-12-11T03:50:56.432Z,4.58
2018-12-11T03:59:12.463Z,4.60
2018-12-11T04:03:17.503Z,4.59
2018-12-11T04:07:22.454Z,4.60
2018-12-11T04:11:27.497Z,4.63
2018-12-11T04:15:32.472Z,4.64
2018-12-11T04:19:37.533Z,4.62
2018-12-11T04:23:42.594Z,4.64
2018-12-11T04:27:47.664Z,4.67
2018-12-11T04:31:52.794Z,4.66
2018-12-11T04:35:57.841Z,4.66
2018-12-11T04:40:02.862Z,4.67
2018-12-11T04:44:07.886Z,4.68
2018-12-11T04:48:12.862Z,4.66
2018-12-11T04:52:17.880Z,4.66
2018-12-11T04:56:23.537Z,4.67
2018-12-11T05:00:28.723Z,4.65
2018-12-11T05:04:33.763Z,4.65
2018-12-11T05:08:38.702Z,4.64
2018-12-11T05:12:43.781Z,4.63
2018-12-11T05:16:48.848Z,4.65
2018-12-11T05:20:53.885Z,4.61
2018-12-11T05:24:58.913Z,4.56
2018-12-11T05:29:03.883Z,4.49
2018-12-11T05:33:08.896Z,4.42
2018-12-11T05:37:32.703Z,4.32
2018-12-11T05:41:37.618Z,4.25
2018-12-11T05:45:42.594Z,4.20
2018-12-11T05:49:47.626Z,4.17
2018-12-11T05:53:52.472Z,4.15
2018-12-11T05:57:57.311Z,4.18
2018-12-11T06:02:02.315Z,4.29
2018-12-11T06:06:07.227Z,4.39
2018-12-11T06:10:12.206Z,4.34
2018-12-11T06:14:17.153Z,4.29
2018-12-11T06:18:22.267Z,4.21
2018-12-11T06:22:27.196Z,4.15
2018-12-11T06:26:32.215Z,4.11
2018-12-11T06:30:37.222Z,4.07
2018-12-11T06:34:42.245Z,4.00
2018-12-11T06:38:47.210Z,3.96
2018-12-11T06:42:52.201Z,3.93
2018-12-11T06:46:57.136Z,3.88
2018-12-11T06:51:02.180Z,3.85
2018-12-11T06:55:07.211Z,3.83
2018-12-11T06:59:12.212Z,3.79
2018-12-11T07:03:17.229Z,3.77
2018-12-11T07:07:22.305Z,3.79
2018-12-11T07:11:27.240Z,3.80
2018-12-11T07:15:32.378Z,3.84
2018-12-11T07:19:37.400Z,3.87
2018-12-11T07:23:42.396Z,3.87
2018-12-11T07:27:47.389Z,3.89
2018-12-11T07:31:52.435Z,3.93
2018-12-11T07:35:57.568Z,3.94
2018-12-11T07:44:18.584Z,4.01
2018-12-11T07:48:23.579Z,4.04
2018-12-11T07:52:28.656Z,4.06
2018-12-11T07:56:33.701Z,4.09
2018-12-11T08:00:38.726Z,4.11
2018-12-11T08:04:43.739Z,4.12
2018-12-11T08:08:48.620Z,4.15
2018-12-11T08:12:53.549Z,4.19
2018-12-11T08:16:58.554Z,4.23
2018-12-11T08:21:03.956Z,4.27
2018-12-11T08:25:08.880Z,4.29
2018-12-11T08:29:13.844Z,4.32
2018-12-11T08:33:18.831Z,4.34
2018-12-11T08:37:23.754Z,4.38
2018-12-11T08:41:28.808Z,4.38
2018-12-11T08:45:33.787Z,4.44
2018-12-11T08:49:38.734Z,4.46
2018-12-11T08:53:43.698Z,4.49
2018-12-11T08:57:48.586Z,4.52
2018-12-11T09:02:13.919Z,4.53
2018-12-11T09:06:18.997Z,4.52
2018-12-11T09:10:23.963Z,4.51
2018-12-11T09:14:29.018Z,4.48
2018-12-11T09:18:34.080Z,4.49
2018-12-11T09:22:39.035Z,4.47
2018-12-11T09:26:44.019Z,4.49
2018-12-11T09:30:48.980Z,4.52
2018-12-11T09:34:53.951Z,4.57
2018-12-11T09:38:58.973Z,4.61
2018-12-11T09:43:03.930Z,4.66
2018-12-11T09:47:08.934Z,4.73
2018-12-11T09:51:17.719Z,4.76
2018-12-11T09:55:20.928Z,4.84
2018-12-11T09:59:25.870Z,4.85
2018-12-11T10:03:30.919Z,4.87
2018-12-11T10:07:36.056Z,4.89
2018-12-11T10:11:40.961Z,4.88
2018-12-11T10:15:45.945Z,4.87
2018-12-11T10:19:51.425Z,4.84
2018-12-11T10:23:56.442Z,4.81
2018-12-11T10:28:01.411Z,4.79
2018-12-11T10:32:06.400Z,4.76
2018-12-11T10:36:30.225Z,4.72
2018-12-11T10:40:35.648Z,4.69
2018-12-11T10:44:40.620Z,4.69
2018-12-11T10:48:45.561Z,4.66
2018-12-11T10:52:50.626Z,4.63
2018-12-11T10:56:55.650Z,4.64
2018-12-11T11:01:19.266Z,4.66
2018-12-11T11:05:24.229Z,4.66
2018-12-11T11:09:29.196Z,4.72
2018-12-11T11:13:34.127Z,4.77
2018-12-11T11:17:39.164Z,4.80
2018-12-11T11:21:44.070Z,4.78
2018-12-11T11:25:49.541Z,4.80
2018-12-11T11:29:54.432Z,4.87
2018-12-11T11:33:59.518Z,4.89
2018-12-11T11:38:05.693Z,4.96
2018-12-11T11:42:10.641Z,4.97
2018-12-11T11:46:15.564Z,5.01
2018-12-11T11:50:20.584Z,5.05
2018-12-11T11:54:25.631Z,5.11
2018-12-11T11:58:30.555Z,5.12
2018-12-11T12:02:35.619Z,5.14
2018-12-11T12:06:40.538Z,5.16
2018-12-11T12:10:45.519Z,5.21
2018-12-11T12:14:50.445Z,5.19
2018-12-11T12:18:55.336Z,5.22
2018-12-11T12:23:00.312Z,5.24
2018-12-11T12:27:05.306Z,5.23
2018-12-11T12:35:22.615Z,5.27
2018-12-11T12:39:27.502Z,5.31
2018-12-11T12:43:33.032Z,5.34
2018-12-11T12:47:37.898Z,5.34
2018-12-11T12:51:42.799Z,5.36
2018-12-11T12:55:47.686Z,5.40
2018-12-11T13:04:24.485Z,5.38
2018-12-11T13:08:29.442Z,5.43
2018-12-11T13:12:34.700Z,5.39
2018-12-11T13:16:39.711Z,5.29
2018-12-11T13:20:44.729Z,5.22
2018-12-11T13:24:49.730Z,5.18
2018-12-11T13:28:55.274Z,5.13
2018-12-11T13:33:00.199Z,5.09
2018-12-11T13:37:05.170Z,4.99
2018-12-11T13:41:10.117Z,4.90
2018-12-11T13:45:15.077Z,4.79
2018-12-11T13:49:20.056Z,4.73
2018-12-11T13:53:25.063Z,4.66
2018-12-11T13:57:30.334Z,4.61
2018-12-11T14:01:35.257Z,4.56
2018-12-11T14:05:40.200Z,4.49
2018-12-11T14:09:45.191Z,4.46
2018-12-11T14:13:50.163Z,4.46
2018-12-11T14:17:55.041Z,4.45
2018-12-11T14:21:59.972Z,4.44
2018-12-11T14:26:04.866Z,4.43
2018-12-11T14:30:11.424Z,4.40
2018-12-11T14:34:16.429Z,4.38
2018-12-11T14:38:21.638Z,4.35
2018-12-11T14:42:26.642Z,4.36
2018-12-11T14:46:31.700Z,4.34
2018-12-11T14:50:36.777Z,4.34
2018-12-11T14:54:41.690Z,4.36
2018-12-11T14:58:46.734Z,4.35
2018-12-11T15:11:20.185Z,4.27
2018-12-11T15:15:25.144Z,4.25
2018-12-11T15:23:40.308Z,4.17
2018-12-11T15:27:45.264Z,4.15
2018-12-11T15:31:50.250Z,4.10
2018-12-11T15:35:55.594Z,4.09
2018-12-11T15:40:00.573Z,4.06
2018-12-11T15:44:05.499Z,4.03
2018-12-11T15:48:10.519Z,4.00
2018-12-11T15:52:15.481Z,3.98
2018-12-11T15:56:20.509Z,3.95
2018-12-11T16:00:25.417Z,3.93
2018-12-11T16:04:30.385Z,3.90
2018-12-11T16:08:35.319Z,3.88
2018-12-11T16:12:40.798Z,3.86
2018-12-11T16:17:24.939Z,3.87
2018-12-11T16:21:29.925Z,3.86
2018-12-11T16:25:35.291Z,3.86
2018-12-11T16:29:40.259Z,3.85
2018-12-11T16:33:45.142Z,3.83
2018-12-11T16:37:50.265Z,3.81
2018-12-11T16:41:55.284Z,3.79
2018-12-11T16:46:00.303Z,3.76
2018-12-11T16:50:05.663Z,3.74
2018-12-11T16:54:10.627Z,3.72
2018-12-11T16:58:15.611Z,3.69
2018-12-11T17:02:20.595Z,3.69
2018-12-11T17:06:25.582Z,3.72
2018-12-11T17:10:30.543Z,3.71
2018-12-11T17:14:35.540Z,3.76
2018-12-11T17:18:40.470Z,3.79
2018-12-11T17:22:45.369Z,3.81
2018-12-11T17:26:50.383Z,3.84
2018-12-11T17:30:55.299Z,3.85
2018-12-11T17:35:00.321Z,3.87
2018-12-11T17:43:37.387Z,3.92
2018-12-11T17:47:42.334Z,3.95
2018-12-11T17:51:47.289Z,3.98
2018-12-11T17:55:52.303Z,3.97
2018-12-11T17:59:57.216Z,3.99
2018-12-11T18:04:02.210Z,4.03
2018-12-11T18:08:07.163Z,4.04
2018-12-11T18:12:12.069Z,4.06
2018-12-11T18:16:17.069Z,4.08
2018-12-11T18:20:22.046Z,4.09
2018-12-11T18:24:27.013Z,4.12
2018-12-11T18:28:31.971Z,4.12
2018-12-11T18:32:37.015Z,4.17
2018-12-11T18:36:42.036Z,4.17
2018-12-11T18:40:46.963Z,4.18
2018-12-11T18:44:51.894Z,4.17
2018-12-11T18:48:56.878Z,4.19
2018-12-11T18:53:01.954Z,4.21
2018-12-11T18:57:07.419Z,4.25
2018-12-11T19:01:34.134Z,4.27
2018-12-11T19:10:29.075Z,4.26
2018-12-11T19:14:34.164Z,4.21
2018-12-11T19:18:39.913Z,4.20
2018-12-11T19:22:46.816Z,4.17
2018-12-11T19:31:11.973Z,4.15
2018-12-11T19:35:17.194Z,4.09
2018-12-11T19:39:22.178Z,4.03
2018-12-11T19:43:27.251Z,3.99
2018-12-11T19:47:32.378Z,3.95
2018-12-11T19:51:37.470Z,3.93
2018-12-11T19:55:42.513Z,3.91
2018-12-11T19:59:47.592Z,3.86
2018-12-11T20:03:52.722Z,3.86
2018-12-11T20:08:01.034Z,3.89
2018-12-11T20:12:06.399Z,3.91
2018-12-11T20:16:12.105Z,3.88
2018-12-11T20:20:36.048Z,3.86
2018-12-11T20:24:41.081Z,3.85
2018-12-11T20:33:16.555Z,3.87
2018-12-11T20:37:23.877Z,3.83
2018-12-11T20:41:29.956Z,3.80
2018-12-11T20:45:35.501Z,3.74
2018-12-11T20:49:41.538Z,3.68
2018-12-11T20:53:46.512Z,3.61
2018-12-11T20:57:56.535Z,3.48
2018-12-11T21:02:02.277Z,3.33
2018-12-11T21:06:07.418Z,3.14
2018-12-11T21:10:13.987Z,2.94
2018-12-11T21:14:19.346Z,2.82
2018-12-11T21:18:24.421Z,2.73
2018-12-11T21:22:48.280Z,2.74
2018-12-11T21:31:05.827Z,2.82
2018-12-11T21:35:11.291Z,2.88
2018-12-11T21:39:16.326Z,2.89
2018-12-11T21:43:21.411Z,2.96
2018-12-11T21:47:26.413Z,2.99
2018-12-11T21:51:31.459Z,3.01
2018-12-11T21:55:36.553Z,3.10
2018-12-11T21:59:41.543Z,3.18
2018-12-11T22:03:46.418Z,3.25
2018-12-11T22:07:51.352Z,3.31
2018-12-11T22:11:56.269Z,3.34
2018-12-11T22:16:01.657Z,3.36
2018-12-11T22:20:06.962Z,3.42
2018-12-11T22:24:12.039Z,3.47
2018-12-11T22:28:16.935Z,3.50
2018-12-11T22:32:21.877Z,3.53
2018-12-11T22:36:26.778Z,3.55
2018-12-11T22:40:31.727Z,3.57
2018-12-11T22:44:36.611Z,3.54
2018-12-11T22:48:41.746Z,3.54
2018-12-11T22:52:48.062Z,3.59
2018-12-11T22:56:53.741Z,3.60
2018-12-11T23:00:58.674Z,3.62
2018-12-11T23:05:03.659Z,3.67
2018-12-11T23:09:09.446Z,3.67
2018-12-11T23:13:14.383Z,3.63
2018-12-11T23:17:19.347Z,3.60
2018-12-11T23:21:24.279Z,3.53
2018-12-11T23:25:29.234Z,3.42
2018-12-11T23:29:34.142Z,3.24
2018-12-11T23:33:39.085Z,3.06
2018-12-11T23:37:44.052Z,2.84
2018-12-11T23:41:48.989Z,2.67
2018-12-11T23:45:53.867Z,2.52
2018-12-11T23:49:58.840Z,2.43
2018-12-11T23:54:03.835Z,2.37
2018-12-11T23:58:08.821Z,2.35
